sensor_id;sensor_type;location;lat;lon;timestamp;P1;durP1;ratioP1;P2;durP2;ratioP2
43996;SDS011;34318;45.818;15.964;2023-01-26T00:00:51;13.02;;;11.73;;
43996;SDS011;34318;45.818;15.964;2023-01-26T00:03:18;12.77;;;11.48;;
43996;SDS011;34318;45.818;15.964;2023-01-26T00:05:46;13.95;;;12.57;;
43996;SDS011;34318;45.818;15.964;2023-01-26T00:08:13;14.93;;;12.30;;
43996;SDS011;34318;45.818;15.964;2023-01-26T00:10:40;13.52;;;12.32;;
43996;SDS011;34318;45.818;15.964;2023-01-26T00:13:16;13.63;;;12.32;;
43996;SDS011;34318;45.818;15.964;2023-01-26T00:15:45;13.05;;;11.70;;
43996;SDS011;34318;45.818;15.964;2023-01-26T00:18:12;12.30;;;11.13;;
43996;SDS011;34318;45.818;15.964;2023-01-26T00:20:39;12.07;;;10.88;;
43996;SDS011;34318;45.818;15.964;2023-01-26T00:23:06;12.18;;;10.98;;
43996;SDS011;34318;45.818;15.964;2023-01-26T00:25:36;14.13;;;12.70;;
43996;SDS011;34318;45.818;15.964;2023-01-26T00:28:04;13.48;;;12.18;;
43996;SDS011;34318;45.818;15.964;2023-01-26T00:30:32;12.73;;;11.43;;
43996;SDS011;34318;45.818;15.964;2023-01-26T00:32:59;12.60;;;11.45;;
43996;SDS011;34318;45.818;15.964;2023-01-26T00:35:26;13.02;;;11.57;;
43996;SDS011;34318;45.818;15.964;2023-01-26T00:37:53;12.75;;;11.55;;
43996;SDS011;34318;45.818;15.964;2023-01-26T00:40:21;12.93;;;11.10;;
43996;SDS011;34318;45.818;15.964;2023-01-26T00:42:48;12.68;;;11.48;;
43996;SDS011;34318;45.818;15.964;2023-01-26T00:45:15;11.93;;;10.93;;
43996;SDS011;34318;45.818;15.964;2023-01-26T00:47:42;12.95;;;11.65;;
43996;SDS011;34318;45.818;15.964;2023-01-26T00:50:10;24.38;;;11.30;;
43996;SDS011;34318;45.818;15.964;2023-01-26T00:52:38;11.60;;;10.50;;
43996;SDS011;34318;45.818;15.964;2023-01-26T00:55:05;11.95;;;10.73;;
43996;SDS011;34318;45.818;15.964;2023-01-26T00:57:32;13.07;;;11.27;;
43996;SDS011;34318;45.818;15.964;2023-01-26T00:59:59;11.95;;;10.75;;
43996;SDS011;34318;45.818;15.964;2023-01-26T01:02:27;15.15;;;11.55;;
43996;SDS011;34318;45.818;15.964;2023-01-26T01:04:54;14.15;;;10.77;;
43996;SDS011;34318;45.818;15.964;2023-01-26T01:07:21;11.48;;;10.38;;
43996;SDS011;34318;45.818;15.964;2023-01-26T01:09:48;12.05;;;10.82;;
43996;SDS011;34318;45.818;15.964;2023-01-26T01:12:16;12.32;;;11.23;;
43996;SDS011;34318;45.818;15.964;2023-01-26T01:14:43;11.70;;;10.60;;
43996;SDS011;34318;45.818;15.964;2023-01-26T01:17:10;13.80;;;10.35;;
43996;SDS011;34318;45.818;15.964;2023-01-26T01:19:37;11.73;;;10.52;;
43996;SDS011;34318;45.818;15.964;2023-01-26T01:22:05;11.68;;;10.57;;
43996;SDS011;34318;45.818;15.964;2023-01-26T01:24:32;12.05;;;10.85;;
43996;SDS011;34318;45.818;15.964;2023-01-26T01:27:00;11.73;;;10.65;;
43996;SDS011;34318;45.818;15.964;2023-01-26T01:29:27;11.65;;;10.52;;
43996;SDS011;34318;45.818;15.964;2023-01-26T01:31:55;11.90;;;10.73;;
43996;SDS011;34318;45.818;15.964;2023-01-26T01:34:22;12.15;;;10.98;;
43996;SDS011;34318;45.818;15.964;2023-01-26T01:36:49;10.93;;;9.95;;
43996;SDS011;34318;45.818;15.964;2023-01-26T01:39:17;12.02;;;10.68;;
43996;SDS011;34318;45.818;15.964;2023-01-26T01:41:44;11.50;;;10.40;;
43996;SDS011;34318;45.818;15.964;2023-01-26T01:44:16;11.45;;;10.40;;
43996;SDS011;34318;45.818;15.964;2023-01-26T01:46:57;11.23;;;10.05;;
43996;SDS011;34318;45.818;15.964;2023-01-26T01:49:30;9.80;;;8.90;;
43996;SDS011;34318;45.818;15.964;2023-01-26T01:52:08;11.02;;;9.60;;
43996;SDS011;34318;45.818;15.964;2023-01-26T01:54:41;11.40;;;10.30;;
43996;SDS011;34318;45.818;15.964;2023-01-26T01:57:10;10.82;;;9.68;;
43996;SDS011;34318;45.818;15.964;2023-01-26T01:59:41;10.80;;;9.80;;
43996;SDS011;34318;45.818;15.964;2023-01-26T02:02:10;10.43;;;9.30;;
43996;SDS011;34318;45.818;15.964;2023-01-26T02:04:38;10.88;;;9.88;;
43996;SDS011;34318;45.818;15.964;2023-01-26T02:07:05;10.75;;;9.75;;
43996;SDS011;34318;45.818;15.964;2023-01-26T02:09:34;10.80;;;9.77;;
43996;SDS011;34318;45.818;15.964;2023-01-26T02:12:22;10.07;;;8.77;;
43996;SDS011;34318;45.818;15.964;2023-01-26T02:14:51;10.57;;;9.52;;
43996;SDS011;34318;45.818;15.964;2023-01-26T02:17:18;9.93;;;8.93;;
43996;SDS011;34318;45.818;15.964;2023-01-26T02:19:50;11.20;;;10.02;;
43996;SDS011;34318;45.818;15.964;2023-01-26T02:22:24;12.48;;;9.80;;
43996;SDS011;34318;45.818;15.964;2023-01-26T02:24:53;11.10;;;9.93;;
43996;SDS011;34318;45.818;15.964;2023-01-26T02:27:21;10.25;;;9.35;;
43996;SDS011;34318;45.818;15.964;2023-01-26T02:29:48;10.48;;;9.48;;
43996;SDS011;34318;45.818;15.964;2023-01-26T02:32:15;10.60;;;9.23;;
43996;SDS011;34318;45.818;15.964;2023-01-26T02:34:43;9.57;;;8.75;;
43996;SDS011;34318;45.818;15.964;2023-01-26T02:37:13;9.40;;;8.50;;
43996;SDS011;34318;45.818;15.964;2023-01-26T02:39:48;9.98;;;9.18;;
43996;SDS011;34318;45.818;15.964;2023-01-26T02:42:19;9.63;;;8.80;;
43996;SDS011;34318;45.818;15.964;2023-01-26T02:45:07;9.60;;;8.68;;
43996;SDS011;34318;45.818;15.964;2023-01-26T02:47:35;9.32;;;8.50;;
43996;SDS011;34318;45.818;15.964;2023-01-26T02:50:02;9.50;;;8.60;;
43996;SDS011;34318;45.818;15.964;2023-01-26T02:52:30;9.35;;;8.45;;
43996;SDS011;34318;45.818;15.964;2023-01-26T02:54:57;10.45;;;9.27;;
43996;SDS011;34318;45.818;15.964;2023-01-26T02:57:43;10.38;;;8.23;;
43996;SDS011;34318;45.818;15.964;2023-01-26T03:00:21;10.00;;;9.10;;
43996;SDS011;34318;45.818;15.964;2023-01-26T03:02:50;9.05;;;8.25;;
43996;SDS011;34318;45.818;15.964;2023-01-26T03:05:18;10.40;;;9.40;;
43996;SDS011;34318;45.818;15.964;2023-01-26T03:07:45;9.50;;;8.63;;
43996;SDS011;34318;45.818;15.964;2023-01-26T03:10:12;9.55;;;8.57;;
43996;SDS011;34318;45.818;15.964;2023-01-26T03:12:41;9.80;;;8.90;;
43996;SDS011;34318;45.818;15.964;2023-01-26T03:15:09;9.40;;;8.60;;
43996;SDS011;34318;45.818;15.964;2023-01-26T03:18:05;8.63;;;7.93;;
43996;SDS011;34318;45.818;15.964;2023-01-26T03:20:51;10.07;;;9.07;;
43996;SDS011;34318;45.818;15.964;2023-01-26T03:23:38;9.35;;;8.55;;
43996;SDS011;34318;45.818;15.964;2023-01-26T03:26:24;10.27;;;9.27;;
43996;SDS011;34318;45.818;15.964;2023-01-26T03:29:10;10.13;;;8.55;;
43996;SDS011;34318;45.818;15.964;2023-01-26T03:31:37;9.43;;;8.30;;
43996;SDS011;34318;45.818;15.964;2023-01-26T03:34:04;9.15;;;8.35;;
43996;SDS011;34318;45.818;15.964;2023-01-26T03:36:31;9.27;;;8.50;;
43996;SDS011;34318;45.818;15.964;2023-01-26T03:38:58;9.45;;;8.55;;
43996;SDS011;34318;45.818;15.964;2023-01-26T03:41:26;8.88;;;8.07;;
43996;SDS011;34318;45.818;15.964;2023-01-26T03:44:11;9.35;;;8.45;;
43996;SDS011;34318;45.818;15.964;2023-01-26T03:46:57;9.50;;;8.70;;
43996;SDS011;34318;45.818;15.964;2023-01-26T03:49:43;9.00;;;8.10;;
43996;SDS011;34318;45.818;15.964;2023-01-26T03:52:30;8.75;;;7.85;;
43996;SDS011;34318;45.818;15.964;2023-01-26T03:55:16;10.23;;;9.18;;
43996;SDS011;34318;45.818;15.964;2023-01-26T03:58:02;8.93;;;8.13;;
43996;SDS011;34318;45.818;15.964;2023-01-26T04:00:30;8.60;;;7.80;;
43996;SDS011;34318;45.818;15.964;2023-01-26T04:02:57;9.02;;;8.23;;
43996;SDS011;34318;45.818;15.964;2023-01-26T04:05:43;8.98;;;8.18;;
43996;SDS011;34318;45.818;15.964;2023-01-26T04:08:41;9.43;;;8.00;;
43996;SDS011;34318;45.818;15.964;2023-01-26T04:11:09;9.48;;;8.40;;
43996;SDS011;34318;45.818;15.964;2023-01-26T04:13:37;9.18;;;8.27;;
43996;SDS011;34318;45.818;15.964;2023-01-26T04:16:23;8.88;;;8.07;;
43996;SDS011;34318;45.818;15.964;2023-01-26T04:19:09;9.55;;;8.25;;
43996;SDS011;34318;45.818;15.964;2023-01-26T04:21:55;8.57;;;7.78;;
43996;SDS011;34318;45.818;15.964;2023-01-26T04:24:22;8.80;;;8.00;;
43996;SDS011;34318;45.818;15.964;2023-01-26T04:26:49;8.45;;;7.57;;
43996;SDS011;34318;45.818;15.964;2023-01-26T04:29:17;8.68;;;7.95;;
43996;SDS011;34318;45.818;15.964;2023-01-26T04:31:44;8.90;;;8.10;;
43996;SDS011;34318;45.818;15.964;2023-01-26T04:34:12;8.98;;;8.18;;
43996;SDS011;34318;45.818;15.964;2023-01-26T04:36:40;8.80;;;8.00;;
43996;SDS011;34318;45.818;15.964;2023-01-26T04:39:08;8.40;;;7.55;;
43996;SDS011;34318;45.818;15.964;2023-01-26T04:41:35;8.57;;;7.68;;
43996;SDS011;34318;45.818;15.964;2023-01-26T04:44:07;8.85;;;8.05;;
43996;SDS011;34318;45.818;15.964;2023-01-26T04:46:34;8.63;;;7.78;;
43996;SDS011;34318;45.818;15.964;2023-01-26T04:49:01;8.23;;;7.53;;
43996;SDS011;34318;45.818;15.964;2023-01-26T04:51:29;9.13;;;8.23;;
43996;SDS011;34318;45.818;15.964;2023-01-26T04:53:56;8.98;;;7.82;;
43996;SDS011;34318;45.818;15.964;2023-01-26T04:56:24;8.63;;;7.93;;
43996;SDS011;34318;45.818;15.964;2023-01-26T04:58:52;8.13;;;7.35;;
43996;SDS011;34318;45.818;15.964;2023-01-26T05:01:20;8.23;;;7.53;;
43996;SDS011;34318;45.818;15.964;2023-01-26T05:03:47;8.32;;;7.45;;
43996;SDS011;34318;45.818;15.964;2023-01-26T05:06:14;8.70;;;7.93;;
43996;SDS011;34318;45.818;15.964;2023-01-26T05:08:41;8.07;;;7.28;;
43996;SDS011;34318;45.818;15.964;2023-01-26T05:11:09;9.23;;;7.25;;
43996;SDS011;34318;45.818;15.964;2023-01-26T05:13:36;7.35;;;6.65;;
43996;SDS011;34318;45.818;15.964;2023-01-26T05:16:04;8.02;;;7.30;;
43996;SDS011;34318;45.818;15.964;2023-01-26T05:18:32;8.85;;;7.95;;
43996;SDS011;34318;45.818;15.964;2023-01-26T05:21:00;9.77;;;7.97;;
43996;SDS011;34318;45.818;15.964;2023-01-26T05:23:27;8.13;;;7.32;;
43996;SDS011;34318;45.818;15.964;2023-01-26T05:25:55;8.27;;;7.47;;
43996;SDS011;34318;45.818;15.964;2023-01-26T05:28:22;8.60;;;7.70;;
43996;SDS011;34318;45.818;15.964;2023-01-26T05:30:49;7.93;;;7.15;;
43996;SDS011;34318;45.818;15.964;2023-01-26T05:33:16;7.50;;;6.80;;
43996;SDS011;34318;45.818;15.964;2023-01-26T05:35:47;8.27;;;7.47;;
43996;SDS011;34318;45.818;15.964;2023-01-26T05:38:15;9.23;;;8.23;;
43996;SDS011;34318;45.818;15.964;2023-01-26T05:40:42;8.45;;;7.65;;
43996;SDS011;34318;45.818;15.964;2023-01-26T05:43:10;8.48;;;7.55;;
43996;SDS011;34318;45.818;15.964;2023-01-26T05:45:38;8.90;;;7.68;;
43996;SDS011;34318;45.818;15.964;2023-01-26T05:48:05;8.25;;;7.45;;
43996;SDS011;34318;45.818;15.964;2023-01-26T05:50:32;10.18;;;7.32;;
43996;SDS011;34318;45.818;15.964;2023-01-26T05:53:00;8.30;;;7.32;;
43996;SDS011;34318;45.818;15.964;2023-01-26T05:55:28;8.77;;;7.88;;
43996;SDS011;34318;45.818;15.964;2023-01-26T05:57:55;8.82;;;7.47;;
43996;SDS011;34318;45.818;15.964;2023-01-26T06:00:22;11.40;;;8.25;;
43996;SDS011;34318;45.818;15.964;2023-01-26T06:02:50;10.27;;;7.78;;
43996;SDS011;34318;45.818;15.964;2023-01-26T06:05:17;7.80;;;7.05;;
43996;SDS011;34318;45.818;15.964;2023-01-26T06:07:45;10.05;;;7.70;;
43996;SDS011;34318;45.818;15.964;2023-01-26T06:10:12;8.55;;;7.32;;
43996;SDS011;34318;45.818;15.964;2023-01-26T06:12:39;8.25;;;7.30;;
43996;SDS011;34318;45.818;15.964;2023-01-26T06:15:08;15.00;;;8.65;;
43996;SDS011;34318;45.818;15.964;2023-01-26T06:17:35;15.20;;;9.57;;
43996;SDS011;34318;45.818;15.964;2023-01-26T06:20:02;10.40;;;8.25;;
43996;SDS011;34318;45.818;15.964;2023-01-26T06:22:30;10.98;;;8.90;;
43996;SDS011;34318;45.818;15.964;2023-01-26T06:24:57;12.20;;;8.68;;
43996;SDS011;34318;45.818;15.964;2023-01-26T06:27:24;18.73;;;9.45;;
43996;SDS011;34318;45.818;15.964;2023-01-26T06:29:51;12.80;;;8.68;;
43996;SDS011;34318;45.818;15.964;2023-01-26T06:32:18;16.83;;;8.95;;
43996;SDS011;34318;45.818;15.964;2023-01-26T06:34:46;15.13;;;8.25;;
43996;SDS011;34318;45.818;15.964;2023-01-26T06:37:13;11.45;;;9.18;;
43996;SDS011;34318;45.818;15.964;2023-01-26T06:39:40;12.80;;;8.32;;
43996;SDS011;34318;45.818;15.964;2023-01-26T06:42:07;10.65;;;8.00;;
43996;SDS011;34318;45.818;15.964;2023-01-26T06:44:34;12.40;;;9.07;;
43996;SDS011;34318;45.818;15.964;2023-01-26T06:47:01;10.00;;;7.80;;
43996;SDS011;34318;45.818;15.964;2023-01-26T06:49:29;8.77;;;7.50;;
43996;SDS011;34318;45.818;15.964;2023-01-26T06:54:23;11.95;;;8.35;;
43996;SDS011;34318;45.818;15.964;2023-01-26T06:56:50;10.48;;;7.30;;
43996;SDS011;34318;45.818;15.964;2023-01-26T06:59:18;13.27;;;8.45;;
43996;SDS011;34318;45.818;15.964;2023-01-26T07:01:45;10.25;;;8.35;;
43996;SDS011;34318;45.818;15.964;2023-01-26T07:04:14;11.27;;;8.35;;
43996;SDS011;34318;45.818;15.964;2023-01-26T07:06:42;11.80;;;8.40;;
43996;SDS011;34318;45.818;15.964;2023-01-26T07:09:09;9.55;;;7.97;;
43996;SDS011;34318;45.818;15.964;2023-01-26T07:11:36;11.98;;;8.57;;
43996;SDS011;34318;45.818;15.964;2023-01-26T07:14:03;8.82;;;7.70;;
43996;SDS011;34318;45.818;15.964;2023-01-26T07:16:30;11.15;;;8.10;;
43996;SDS011;34318;45.818;15.964;2023-01-26T07:18:59;12.10;;;8.55;;
43996;SDS011;34318;45.818;15.964;2023-01-26T07:21:26;9.02;;;7.70;;
43996;SDS011;34318;45.818;15.964;2023-01-26T07:23:54;9.43;;;7.20;;
43996;SDS011;34318;45.818;15.964;2023-01-26T07:26:21;8.85;;;7.85;;
43996;SDS011;34318;45.818;15.964;2023-01-26T07:28:48;12.20;;;8.48;;
43996;SDS011;34318;45.818;15.964;2023-01-26T07:31:16;9.05;;;7.88;;
43996;SDS011;34318;45.818;15.964;2023-01-26T07:33:43;8.75;;;7.50;;
43996;SDS011;34318;45.818;15.964;2023-01-26T07:36:10;10.30;;;7.68;;
43996;SDS011;34318;45.818;15.964;2023-01-26T07:38:37;10.50;;;8.25;;
43996;SDS011;34318;45.818;15.964;2023-01-26T07:41:05;8.88;;;7.63;;
43996;SDS011;34318;45.818;15.964;2023-01-26T07:43:34;8.07;;;7.05;;
43996;SDS011;34318;45.818;15.964;2023-01-26T07:46:01;10.20;;;7.75;;
43996;SDS011;34318;45.818;15.964;2023-01-26T07:48:29;10.43;;;8.18;;
43996;SDS011;34318;45.818;15.964;2023-01-26T07:50:57;12.30;;;7.20;;
43996;SDS011;34318;45.818;15.964;2023-01-26T07:53:25;8.98;;;8.07;;
43996;SDS011;34318;45.818;15.964;2023-01-26T07:56:03;8.65;;;7.40;;
43996;SDS011;34318;45.818;15.964;2023-01-26T07:58:31;10.63;;;8.20;;
43996;SDS011;34318;45.818;15.964;2023-01-26T08:01:05;9.93;;;7.43;;
43996;SDS011;34318;45.818;15.964;2023-01-26T08:03:32;8.00;;;7.13;;
43996;SDS011;34318;45.818;15.964;2023-01-26T08:06:00;7.38;;;6.68;;
43996;SDS011;34318;45.818;15.964;2023-01-26T08:08:27;9.25;;;7.03;;
43996;SDS011;34318;45.818;15.964;2023-01-26T08:10:55;8.70;;;7.60;;
43996;SDS011;34318;45.818;15.964;2023-01-26T08:13:23;7.20;;;6.50;;
43996;SDS011;34318;45.818;15.964;2023-01-26T08:16:01;8.45;;;7.57;;
43996;SDS011;34318;45.818;15.964;2023-01-26T08:18:28;8.30;;;6.63;;
43996;SDS011;34318;45.818;15.964;2023-01-26T08:20:56;7.78;;;6.97;;
43996;SDS011;34318;45.818;15.964;2023-01-26T08:23:23;8.10;;;6.90;;
43996;SDS011;34318;45.818;15.964;2023-01-26T08:25:51;7.88;;;6.93;;
43996;SDS011;34318;45.818;15.964;2023-01-26T08:28:18;7.63;;;6.57;;
43996;SDS011;34318;45.818;15.964;2023-01-26T08:30:46;9.27;;;6.75;;
43996;SDS011;34318;45.818;15.964;2023-01-26T08:33:13;8.25;;;6.43;;
43996;SDS011;34318;45.818;15.964;2023-01-26T08:35:40;7.78;;;6.95;;
43996;SDS011;34318;45.818;15.964;2023-01-26T08:38:08;7.00;;;6.15;;
43996;SDS011;34318;45.818;15.964;2023-01-26T08:40:35;9.05;;;7.10;;
43996;SDS011;34318;45.818;15.964;2023-01-26T08:43:03;9.15;;;7.45;;
43996;SDS011;34318;45.818;15.964;2023-01-26T08:45:30;8.07;;;6.63;;
43996;SDS011;34318;45.818;15.964;2023-01-26T08:47:57;7.93;;;6.88;;
43996;SDS011;34318;45.818;15.964;2023-01-26T08:50:25;8.15;;;7.35;;
43996;SDS011;34318;45.818;15.964;2023-01-26T08:52:54;8.13;;;7.28;;
43996;SDS011;34318;45.818;15.964;2023-01-26T08:55:21;7.68;;;6.45;;
43996;SDS011;34318;45.818;15.964;2023-01-26T08:57:52;7.40;;;6.70;;
43996;SDS011;34318;45.818;15.964;2023-01-26T09:00:21;7.32;;;6.47;;
43996;SDS011;34318;45.818;15.964;2023-01-26T09:02:48;7.97;;;7.18;;
43996;SDS011;34318;45.818;15.964;2023-01-26T09:05:16;7.78;;;7.07;;
43996;SDS011;34318;45.818;15.964;2023-01-26T09:07:43;9.10;;;7.10;;
43996;SDS011;34318;45.818;15.964;2023-01-26T09:10:10;9.80;;;6.95;;
43996;SDS011;34318;45.818;15.964;2023-01-26T09:12:38;12.15;;;6.88;;
43996;SDS011;34318;45.818;15.964;2023-01-26T09:15:06;7.15;;;6.32;;
43996;SDS011;34318;45.818;15.964;2023-01-26T09:17:36;7.70;;;6.65;;
43996;SDS011;34318;45.818;15.964;2023-01-26T09:20:11;7.32;;;6.55;;
43996;SDS011;34318;45.818;15.964;2023-01-26T09:22:39;13.63;;;6.97;;
43996;SDS011;34318;45.818;15.964;2023-01-26T09:25:13;7.30;;;6.60;;
43996;SDS011;34318;45.818;15.964;2023-01-26T09:27:41;6.88;;;6.28;;
43996;SDS011;34318;45.818;15.964;2023-01-26T09:30:09;7.82;;;6.93;;
43996;SDS011;34318;45.818;15.964;2023-01-26T09:32:37;7.50;;;6.10;;
43996;SDS011;34318;45.818;15.964;2023-01-26T09:35:04;8.43;;;6.60;;
43996;SDS011;34318;45.818;15.964;2023-01-26T09:37:40;8.55;;;6.55;;
43996;SDS011;34318;45.818;15.964;2023-01-26T09:40:08;12.48;;;6.68;;
43996;SDS011;34318;45.818;15.964;2023-01-26T09:50:11;9.40;;;7.13;;
43996;SDS011;34318;45.818;15.964;2023-01-26T09:52:59;9.30;;;6.25;;
43996;SDS011;34318;45.818;15.964;2023-01-26T09:55:28;7.28;;;6.65;;
43996;SDS011;34318;45.818;15.964;2023-01-26T09:58:04;7.60;;;6.82;;
43996;SDS011;34318;45.818;15.964;2023-01-26T10:08:27;7.97;;;7.18;;
43996;SDS011;34318;45.818;15.964;2023-01-26T10:10:56;8.95;;;6.90;;
43996;SDS011;34318;45.818;15.964;2023-01-26T10:13:25;8.40;;;6.50;;
43996;SDS011;34318;45.818;15.964;2023-01-26T10:15:59;8.10;;;6.78;;
43996;SDS011;34318;45.818;15.964;2023-01-26T10:18:45;7.40;;;6.70;;
43996;SDS011;34318;45.818;15.964;2023-01-26T10:21:15;8.50;;;6.70;;
43996;SDS011;34318;45.818;15.964;2023-01-26T10:23:46;7.88;;;6.57;;
43996;SDS011;34318;45.818;15.964;2023-01-26T10:26:15;7.57;;;6.22;;
43996;SDS011;34318;45.818;15.964;2023-01-26T10:28:43;7.72;;;6.43;;
43996;SDS011;34318;45.818;15.964;2023-01-26T10:31:14;7.75;;;6.47;;
43996;SDS011;34318;45.818;15.964;2023-01-26T10:38:57;7.63;;;6.88;;
43996;SDS011;34318;45.818;15.964;2023-01-26T10:41:29;7.70;;;7.00;;
43996;SDS011;34318;45.818;15.964;2023-01-26T10:48:58;9.65;;;8.52;;
43996;SDS011;34318;45.818;15.964;2023-01-26T10:51:29;10.75;;;8.98;;
43996;SDS011;34318;45.818;15.964;2023-01-26T10:56:42;8.65;;;7.78;;
43996;SDS011;34318;45.818;15.964;2023-01-26T10:59:09;10.32;;;8.30;;
43996;SDS011;34318;45.818;15.964;2023-01-26T11:01:55;9.93;;;8.95;;
43996;SDS011;34318;45.818;15.964;2023-01-26T11:04:23;8.57;;;7.72;;
43996;SDS011;34318;45.818;15.964;2023-01-26T11:06:51;9.30;;;8.50;;
43996;SDS011;34318;45.818;15.964;2023-01-26T11:09:20;10.85;;;9.23;;
43996;SDS011;34318;45.818;15.964;2023-01-26T11:14:25;17.50;;;11.18;;
43996;SDS011;34318;45.818;15.964;2023-01-26T11:17:36;13.35;;;9.95;;
43996;SDS011;34318;45.818;15.964;2023-01-26T11:19:55;12.23;;;9.25;;
43996;SDS011;34318;45.818;15.964;2023-01-26T11:22:36;13.60;;;9.68;;
43996;SDS011;34318;45.818;15.964;2023-01-26T11:25:17;10.63;;;9.43;;
43996;SDS011;34318;45.818;15.964;2023-01-26T11:28:11;12.70;;;8.95;;
43996;SDS011;34318;45.818;15.964;2023-01-26T11:33:16;11.75;;;9.20;;
43996;SDS011;34318;45.818;15.964;2023-01-26T11:35:56;9.77;;;8.20;;
43996;SDS011;34318;45.818;15.964;2023-01-26T11:38:33;12.25;;;9.63;;
43996;SDS011;34318;45.818;15.964;2023-01-26T11:48:52;9.82;;;8.63;;
43996;SDS011;34318;45.818;15.964;2023-01-26T11:51:26;10.95;;;9.38;;
43996;SDS011;34318;45.818;15.964;2023-01-26T11:54:00;14.15;;;10.82;;
43996;SDS011;34318;45.818;15.964;2023-01-26T11:59:11;11.57;;;9.82;;
43996;SDS011;34318;45.818;15.964;2023-01-26T12:01:42;14.98;;;10.00;;
43996;SDS011;34318;45.818;15.964;2023-01-26T12:04:13;10.05;;;9.05;;
43996;SDS011;34318;45.818;15.964;2023-01-26T12:06:44;9.27;;;7.97;;
43996;SDS011;34318;45.818;15.964;2023-01-26T12:12:07;10.93;;;9.23;;
43996;SDS011;34318;45.818;15.964;2023-01-26T12:20:00;9.52;;;8.63;;
43996;SDS011;34318;45.818;15.964;2023-01-26T12:22:32;9.93;;;8.57;;
43996;SDS011;34318;45.818;15.964;2023-01-26T12:27:51;41.70;;;17.90;;
43996;SDS011;34318;45.818;15.964;2023-01-26T12:30:29;80.82;;;35.60;;
43996;SDS011;34318;45.818;15.964;2023-01-26T12:32:57;125.57;;;50.63;;
43996;SDS011;34318;45.818;15.964;2023-01-26T12:38:17;100.03;;;44.13;;
43996;SDS011;34318;45.818;15.964;2023-01-26T12:41:05;98.20;;;40.63;;
43996;SDS011;34318;45.818;15.964;2023-01-26T12:44:13;95.60;;;43.38;;
43996;SDS011;34318;45.818;15.964;2023-01-26T12:46:30;101.15;;;42.55;;
43996;SDS011;34318;45.818;15.964;2023-01-26T12:49:00;82.47;;;39.22;;
43996;SDS011;34318;45.818;15.964;2023-01-26T12:51:29;82.32;;;38.17;;
43996;SDS011;34318;45.818;15.964;2023-01-26T12:53:59;85.05;;;38.50;;
43996;SDS011;34318;45.818;15.964;2023-01-26T12:56:36;79.60;;;35.95;;
43996;SDS011;34318;45.818;15.964;2023-01-26T12:59:08;84.15;;;35.92;;
43996;SDS011;34318;45.818;15.964;2023-01-26T13:01:58;83.03;;;35.25;;
43996;SDS011;34318;45.818;15.964;2023-01-26T13:04:26;80.53;;;35.85;;
43996;SDS011;34318;45.818;15.964;2023-01-26T13:07:03;75.55;;;35.47;;
43996;SDS011;34318;45.818;15.964;2023-01-26T13:09:30;73.82;;;34.00;;
43996;SDS011;34318;45.818;15.964;2023-01-26T13:11:58;75.07;;;33.10;;
43996;SDS011;34318;45.818;15.964;2023-01-26T13:14:35;65.35;;;31.38;;
43996;SDS011;34318;45.818;15.964;2023-01-26T13:24:56;58.90;;;29.88;;
43996;SDS011;34318;45.818;15.964;2023-01-26T13:29:54;58.33;;;29.02;;
43996;SDS011;34318;45.818;15.964;2023-01-26T13:34:50;58.42;;;27.08;;
43996;SDS011;34318;45.818;15.964;2023-01-26T13:39:57;54.22;;;28.98;;
43996;SDS011;34318;45.818;15.964;2023-01-26T13:42:26;51.97;;;27.92;;
43996;SDS011;34318;45.818;15.964;2023-01-26T13:44:57;49.58;;;27.17;;
43996;SDS011;34318;45.818;15.964;2023-01-26T13:47:29;48.75;;;27.88;;
43996;SDS011;34318;45.818;15.964;2023-01-26T13:49:58;50.65;;;26.77;;
43996;SDS011;34318;45.818;15.964;2023-01-26T13:52:26;49.53;;;27.77;;
43996;SDS011;34318;45.818;15.964;2023-01-26T13:54:54;45.20;;;25.42;;
43996;SDS011;34318;45.818;15.964;2023-01-26T13:57:27;58.00;;;26.10;;
43996;SDS011;34318;45.818;15.964;2023-01-26T13:59:56;47.35;;;26.02;;
43996;SDS011;34318;45.818;15.964;2023-01-26T14:02:26;45.80;;;25.33;;
43996;SDS011;34318;45.818;15.964;2023-01-26T14:04:56;43.83;;;24.27;;
43996;SDS011;34318;45.818;15.964;2023-01-26T14:07:28;42.08;;;22.85;;
43996;SDS011;34318;45.818;15.964;2023-01-26T14:09:57;44.65;;;23.42;;
43996;SDS011;34318;45.818;15.964;2023-01-26T14:12:28;45.55;;;24.65;;
43996;SDS011;34318;45.818;15.964;2023-01-26T14:14:58;41.22;;;23.02;;
43996;SDS011;34318;45.818;15.964;2023-01-26T14:17:30;44.92;;;22.92;;
43996;SDS011;34318;45.818;15.964;2023-01-26T14:19:58;41.17;;;22.27;;
43996;SDS011;34318;45.818;15.964;2023-01-26T14:22:26;39.40;;;20.65;;
43996;SDS011;34318;45.818;15.964;2023-01-26T14:24:53;39.10;;;21.10;;
43996;SDS011;34318;45.818;15.964;2023-01-26T14:27:37;37.03;;;20.90;;
43996;SDS011;34318;45.818;15.964;2023-01-26T14:30:21;32.88;;;19.52;;
43996;SDS011;34318;45.818;15.964;2023-01-26T14:35:36;34.85;;;19.88;;
43996;SDS011;34318;45.818;15.964;2023-01-26T14:40:49;36.22;;;19.33;;
43996;SDS011;34318;45.818;15.964;2023-01-26T14:43:17;31.20;;;18.00;;
43996;SDS011;34318;45.818;15.964;2023-01-26T14:45:47;35.58;;;20.60;;
43996;SDS011;34318;45.818;15.964;2023-01-26T14:48:15;37.17;;;19.30;;
43996;SDS011;34318;45.818;15.964;2023-01-26T14:50:44;37.38;;;20.20;;
43996;SDS011;34318;45.818;15.964;2023-01-26T14:53:16;31.70;;;19.15;;
43996;SDS011;34318;45.818;15.964;2023-01-26T14:55:44;34.25;;;19.70;;
43996;SDS011;34318;45.818;15.964;2023-01-26T14:58:13;35.80;;;18.98;;
43996;SDS011;34318;45.818;15.964;2023-01-26T15:00:42;32.85;;;19.27;;
43996;SDS011;34318;45.818;15.964;2023-01-26T15:03:22;33.50;;;18.95;;
43996;SDS011;34318;45.818;15.964;2023-01-26T15:06:02;39.17;;;19.83;;
43996;SDS011;34318;45.818;15.964;2023-01-26T15:08:29;36.50;;;18.52;;
43996;SDS011;34318;45.818;15.964;2023-01-26T15:10:57;37.00;;;18.88;;
43996;SDS011;34318;45.818;15.964;2023-01-26T15:13:45;41.78;;;19.15;;
43996;SDS011;34318;45.818;15.964;2023-01-26T15:16:14;35.03;;;18.67;;
43996;SDS011;34318;45.818;15.964;2023-01-26T15:18:44;35.00;;;17.38;;
43996;SDS011;34318;45.818;15.964;2023-01-26T15:21:13;32.15;;;17.15;;
43996;SDS011;34318;45.818;15.964;2023-01-26T15:23:42;33.25;;;17.80;;
43996;SDS011;34318;45.818;15.964;2023-01-26T15:26:13;29.65;;;17.63;;
43996;SDS011;34318;45.818;15.964;2023-01-26T15:28:51;34.22;;;17.95;;
43996;SDS011;34318;45.818;15.964;2023-01-26T15:31:28;32.05;;;17.83;;
43996;SDS011;34318;45.818;15.964;2023-01-26T15:33:56;29.90;;;17.52;;
43996;SDS011;34318;45.818;15.964;2023-01-26T15:39:13;31.05;;;16.83;;
43996;SDS011;34318;45.818;15.964;2023-01-26T15:41:42;33.75;;;15.95;;
43996;SDS011;34318;45.818;15.964;2023-01-26T15:44:17;29.85;;;17.10;;
43996;SDS011;34318;45.818;15.964;2023-01-26T15:46:45;32.50;;;16.30;;
43996;SDS011;34318;45.818;15.964;2023-01-26T15:49:12;22.92;;;14.90;;
43996;SDS011;34318;45.818;15.964;2023-01-26T15:51:40;31.15;;;16.98;;
43996;SDS011;34318;45.818;15.964;2023-01-26T15:54:08;26.58;;;15.52;;
43996;SDS011;34318;45.818;15.964;2023-01-26T15:56:36;34.13;;;16.60;;
43996;SDS011;34318;45.818;15.964;2023-01-26T15:59:03;26.92;;;15.25;;
43996;SDS011;34318;45.818;15.964;2023-01-26T16:01:30;28.25;;;16.77;;
43996;SDS011;34318;45.818;15.964;2023-01-26T16:03:57;26.85;;;14.68;;
43996;SDS011;34318;45.818;15.964;2023-01-26T16:06:26;28.70;;;16.98;;